createdAt,value
2018-11-10T09:22:58.133Z,98730.34
2018-11-10T09:25:26.528Z,98725.77
2018-11-10T09:27:54.949Z,98727.24
2018-11-10T09:30:23.377Z,98731.22
2018-11-10T09:32:51.777Z,98728.72
2018-11-10T09:35:20.134Z,98711.21
2018-11-10T09:37:48.562Z,98715.03
2018-11-10T09:40:17.556Z,98717.09
2018-11-10T09:42:46.155Z,98729.27
2018-11-10T09:45:15.586Z,98727.36
2018-11-10T09:47:43.989Z,98725.39
2018-11-10T09:50:14.842Z,98731.88
2018-11-10T09:52:44.193Z,98729.20
2018-11-10T09:55:12.951Z,98725.86
2018-11-10T09:57:41.399Z,98723.41
2018-11-10T10:00:13.555Z,98721.16
2018-11-10T10:02:42.525Z,98721.02
2018-11-10T10:05:11.105Z,98714.20
2018-11-10T10:07:40.330Z,98720.84
2018-11-10T10:10:10.524Z,98714.03
2018-11-10T10:12:38.954Z,98725.01
2018-11-10T10:15:09.170Z,98724.45
2018-11-10T10:17:37.609Z,98722.09
2018-11-10T10:20:08.372Z,98719.95
2018-11-10T10:22:36.808Z,98725.67
2018-11-10T10:25:06.001Z,98727.14
2018-11-10T10:27:34.457Z,98717.69
2018-11-10T10:30:02.892Z,98725.81
2018-11-10T10:32:31.264Z,98713.11
2018-11-10T10:35:01.786Z,98717.45
2018-11-10T10:37:36.353Z,98711.70
2018-11-10T10:40:14.663Z,98714.53
2018-11-10T10:43:17.958Z,98715.90
2018-11-10T10:45:46.521Z,98706.35
2018-11-10T10:48:14.921Z,98702.45
2018-11-10T10:50:43.397Z,98701.02
2018-11-10T10:53:12.049Z,98692.09
2018-11-10T10:55:40.653Z,98692.02
2018-11-10T10:58:09.436Z,98688.84
2018-11-10T11:00:43.074Z,98692.70
2018-11-10T11:03:16.813Z,98680.55
2018-11-10T11:05:50.493Z,98679.68
2018-11-10T11:08:18.977Z,98674.96
2018-11-10T11:10:47.373Z,98675.19
2018-11-10T11:13:15.770Z,98671.26
2018-11-10T11:15:44.220Z,98674.17
2018-11-10T11:18:12.584Z,98668.09
2018-11-10T11:20:41.044Z,98678.91
2018-11-10T11:23:09.431Z,98673.88
2018-11-10T11:25:37.866Z,98671.88
2018-11-10T11:28:06.261Z,98663.14
2018-11-10T11:30:34.666Z,98668.27
2018-11-10T11:33:03.134Z,98669.23
2018-11-10T11:35:31.600Z,98668.75
2018-11-10T11:37:59.989Z,98670.53
2018-11-10T11:40:28.389Z,98665.40
2018-11-10T11:42:56.838Z,98663.56
2018-11-10T11:45:25.259Z,98653.59
2018-11-10T11:47:53.658Z,98658.36
2018-11-10T11:50:22.058Z,98661.09
2018-11-10T11:52:50.441Z,98649.70
2018-11-10T11:55:18.814Z,98648.59
2018-11-10T11:57:47.380Z,98639.44
2018-11-10T12:00:17.096Z,98646.37
2018-11-10T12:02:46.083Z,98646.37
2018-11-10T12:05:15.817Z,98636.37
2018-11-10T12:07:44.617Z,98632.68
2018-11-10T12:10:14.182Z,98631.13
2018-11-10T12:12:42.586Z,98630.09
2018-11-10T12:15:12.318Z,98627.77
2018-11-10T12:17:40.841Z,98624.66
2018-11-10T12:20:10.712Z,98619.57
2018-11-10T12:22:39.149Z,98622.18
2018-11-10T12:25:08.096Z,98614.52
2018-11-10T12:27:36.673Z,98607.44
2018-11-10T12:30:05.860Z,98612.05
2018-11-10T12:32:34.254Z,98603.95
2018-11-10T12:35:02.689Z,98601.20
2018-11-10T12:37:31.169Z,98592.92
2018-11-10T12:39:59.658Z,98597.66
2018-11-10T12:42:28.109Z,98601.61
2018-11-10T12:44:56.558Z,98592.45
2018-11-10T12:47:25.017Z,98598.31
2018-11-10T12:49:53.417Z,98588.87
2018-11-10T12:52:21.877Z,98596.58
2018-11-10T12:54:50.315Z,98601.54
2018-11-10T12:57:18.738Z,98592.00
2018-11-10T12:59:47.122Z,98596.14
2018-11-10T13:02:15.536Z,98594.88
2018-11-10T13:04:43.958Z,98595.64
2018-11-10T13:07:12.491Z,98592.27
2018-11-10T13:09:40.899Z,98587.37
2018-11-10T13:12:09.357Z,98595.54
2018-11-10T13:14:37.736Z,98590.93
2018-11-10T13:17:06.256Z,98588.77
2018-11-10T13:19:34.749Z,98591.16
2018-11-10T13:22:03.187Z,98598.80
2018-11-10T13:24:31.624Z,98587.75
2018-11-10T13:27:00.045Z,98587.70
2018-11-10T13:29:28.449Z,98587.60
2018-11-10T13:31:56.926Z,98593.48
2018-11-10T13:34:25.285Z,98591.23
2018-11-10T13:36:53.705Z,98591.39
2018-11-10T13:39:22.084Z,98597.65
2018-11-10T13:41:51.412Z,98591.68
2018-11-10T13:44:20.306Z,98595.55
2018-11-10T13:46:49.131Z,98600.28
2018-11-10T13:49:17.751Z,98603.27
2018-11-10T13:51:46.618Z,98596.19
2018-11-10T13:54:15.122Z,98597.80
2018-11-10T13:56:45.006Z,98587.12
2018-11-10T13:59:13.899Z,98584.63
2018-11-10T14:01:42.570Z,98579.39
2018-11-10T14:04:11.583Z,98569.05
2018-11-10T14:06:40.483Z,98563.49
2018-11-10T14:09:11.357Z,98556.84
2018-11-10T14:11:40.671Z,98554.74
2018-11-10T14:32:10.275Z,98567.11
2018-11-10T14:34:39.844Z,98566.45
2018-11-10T14:37:08.677Z,98564.31
2018-11-10T14:39:37.596Z,98564.86
2018-11-10T14:42:06.635Z,98563.98
2018-11-10T14:44:35.399Z,98571.84
2018-11-10T14:47:04.356Z,98565.27
2018-11-10T14:49:32.823Z,98580.03
2018-11-10T14:52:01.238Z,98574.13
2018-11-10T14:54:29.693Z,98586.56
2018-11-10T14:56:58.152Z,98586.38
2018-11-10T14:59:26.529Z,98591.28
2018-11-10T15:01:54.993Z,98583.72
2018-11-10T15:04:23.411Z,98594.89
2018-11-10T15:06:51.841Z,98595.38
2018-11-10T15:09:21.143Z,98601.98
2018-11-10T15:11:50.111Z,98599.25
2018-11-10T15:14:18.445Z,98604.86
2018-11-10T15:16:47.558Z,98604.12
2018-11-10T15:19:16.170Z,98610.31
2018-11-10T15:21:44.917Z,98610.64
2018-11-10T15:24:13.610Z,98614.16
2018-11-10T15:26:42.402Z,98610.52
2018-11-10T15:29:11.086Z,98618.23
2018-11-10T15:31:39.858Z,98609.55
2018-11-10T15:34:08.546Z,98609.55
2018-11-10T15:36:37.254Z,98604.17
2018-11-10T15:39:07.655Z,98604.97
2018-11-10T15:41:36.302Z,98608.47
2018-11-10T15:44:04.709Z,98603.88
2018-11-10T15:46:34.285Z,98608.45
2018-11-10T15:49:03.020Z,98597.02
2018-11-10T15:51:31.763Z,98602.28
2018-11-10T15:54:00.346Z,98605.27
2018-11-10T15:56:28.990Z,98599.81
2018-11-10T15:58:57.670Z,98595.06
2018-11-10T16:01:26.798Z,98595.58
2018-11-10T16:03:55.455Z,98601.63
2018-11-10T16:06:23.893Z,98610.81
2018-11-10T16:08:53.638Z,98613.58
2018-11-10T16:11:22.437Z,98618.25
2018-11-10T16:13:51.246Z,98622.77
2018-11-10T16:16:19.703Z,98623.96
2018-11-10T16:18:48.577Z,98623.70
2018-11-10T16:21:17.122Z,98631.63
2018-11-10T16:23:45.525Z,98633.77
2018-11-10T16:26:13.897Z,98633.58
2018-11-10T16:28:42.363Z,98629.67
2018-11-10T16:31:11.031Z,98629.16
2018-11-10T16:33:39.463Z,98631.14
2018-11-10T16:36:07.854Z,98642.60
2018-11-10T16:38:36.361Z,98643.64
2018-11-10T16:41:05.130Z,98647.50
2018-11-10T16:43:33.565Z,98646.42
2018-11-10T16:46:01.980Z,98638.73
2018-11-10T16:48:30.399Z,98635.88
2018-11-10T16:50:58.905Z,98641.82
2018-11-10T16:53:27.746Z,98646.04
2018-11-10T16:55:56.116Z,98641.56
2018-11-10T16:58:24.534Z,98634.55
2018-11-10T17:00:52.898Z,98642.22
2018-11-10T17:03:21.346Z,98648.90
2018-11-10T17:05:49.741Z,98656.39
2018-11-10T17:08:18.208Z,98652.15
2018-11-10T17:10:46.649Z,98651.20
2018-11-10T17:13:15.086Z,98650.36
2018-11-10T17:15:43.569Z,98650.84
2018-11-10T17:18:12.080Z,98649.91
2018-11-10T17:20:40.463Z,98651.78
2018-11-10T17:23:08.885Z,98658.19
2018-11-10T17:25:37.382Z,98656.95
2018-11-10T17:28:06.082Z,98652.89
2018-11-10T17:30:34.491Z,98662.44
2018-11-10T17:33:04.044Z,98660.13
2018-11-10T17:35:32.647Z,98646.26
2018-11-10T17:38:01.464Z,98656.52
2018-11-10T17:40:29.838Z,98665.88
2018-11-10T17:42:58.259Z,98661.53
2018-11-10T17:45:26.653Z,98655.59
2018-11-10T17:47:55.062Z,98652.50
2018-11-10T17:50:23.482Z,98648.77
2018-11-10T17:52:52.034Z,98650.78
2018-11-10T17:55:23.599Z,98655.84
2018-11-10T17:57:52.239Z,98645.42
2018-11-10T18:00:20.858Z,98634.65
2018-11-10T18:02:49.617Z,98635.13
2018-11-10T18:05:18.349Z,98640.59
2018-11-10T18:07:47.121Z,98636.59
2018-11-10T18:10:17.065Z,98642.34
2018-11-10T18:12:46.208Z,98635.03
2018-11-10T18:15:16.328Z,98641.47
2018-11-10T18:17:45.024Z,98644.32
2018-11-10T18:20:14.692Z,98646.69
2018-11-10T18:22:43.505Z,98650.00
2018-11-10T18:25:13.056Z,98656.59
2018-11-10T18:27:41.710Z,98658.19
2018-11-10T18:30:12.218Z,98656.78
2018-11-10T18:32:43.714Z,98657.66
2018-11-10T18:35:12.761Z,98670.97
2018-11-10T18:37:42.261Z,98671.09
2018-11-10T18:40:12.058Z,98682.64
2018-11-10T18:42:40.621Z,98682.16
2018-11-10T18:45:10.434Z,98689.69
2018-11-10T18:47:40.517Z,98698.73
2018-11-10T18:50:12.120Z,98707.36
2018-11-10T18:52:40.617Z,98722.95
2018-11-10T18:55:09.610Z,98735.17
2018-11-10T18:57:46.271Z,98741.38
2018-11-10T19:00:16.091Z,98759.88
2018-11-10T19:02:44.538Z,98774.86
2018-11-10T19:05:14.377Z,98795.70
2018-11-10T19:07:42.793Z,98806.19
2018-11-10T19:10:13.744Z,98825.80
2018-11-10T19:12:42.702Z,98842.84
2018-11-10T19:15:13.618Z,98850.65
2018-11-10T19:17:42.053Z,98857.63
2018-11-10T19:20:11.193Z,98875.09
2018-11-10T19:22:39.886Z,98883.92
2018-11-10T19:25:09.865Z,98894.27
2018-11-10T19:27:38.821Z,98888.20
2018-11-10T19:30:11.417Z,98894.27
2018-11-10T19:32:39.854Z,98896.75
2018-11-10T19:35:09.247Z,98898.96
2018-11-10T19:37:38.699Z,98902.77
2018-11-10T19:40:07.926Z,98905.77
2018-11-10T19:42:36.327Z,98913.96
2018-11-10T19:45:05.719Z,98928.07
2018-11-10T19:47:34.131Z,98930.75
2018-11-10T19:50:02.608Z,98930.79
2018-11-10T19:52:30.998Z,98922.67
2018-11-10T19:54:59.405Z,98916.17
2018-11-10T19:57:27.849Z,98916.45
2018-11-10T19:59:56.274Z,98914.03
2018-11-10T20:02:24.745Z,98904.78
2018-11-10T20:04:53.239Z,98902.03
2018-11-10T20:07:21.679Z,98894.69
2018-11-10T20:09:50.109Z,98891.22
2018-11-10T20:12:18.529Z,98901.88
2018-11-10T20:14:46.992Z,98912.00
2018-11-10T20:17:15.414Z,98919.42
2018-11-10T20:19:43.965Z,98924.58
2018-11-10T20:22:12.280Z,98919.92
2018-11-10T20:24:40.721Z,98921.69
2018-11-10T20:27:09.158Z,98918.19
2018-11-10T20:29:37.581Z,98915.70
2018-11-10T20:32:06.024Z,98907.92
2018-11-10T20:34:34.456Z,98916.83
2018-11-10T20:37:02.882Z,98913.29
2018-11-10T20:39:31.293Z,98908.94
2018-11-10T20:41:59.754Z,98915.39
2018-11-10T20:44:28.398Z,98901.25
2018-11-10T20:46:56.937Z,98894.11
2018-11-10T20:49:25.389Z,98889.72
2018-11-10T20:51:53.806Z,98878.02
2018-11-10T20:54:22.281Z,98858.44
2018-11-10T20:56:51.004Z,98841.37
2018-11-10T20:59:19.717Z,98843.92
2018-11-10T21:01:48.373Z,98857.29
2018-11-10T21:04:17.021Z,98856.68
2018-11-10T21:06:45.576Z,98826.91
2018-11-10T21:09:13.990Z,98824.58
2018-11-10T21:11:42.381Z,98833.70
2018-11-10T21:14:11.358Z,98836.84
2018-11-10T21:16:39.747Z,98861.34
2018-11-10T21:19:08.432Z,98871.23
2018-11-10T21:21:36.842Z,98870.28
2018-11-10T21:24:05.495Z,98886.68
2018-11-10T21:26:33.939Z,98895.86
2018-11-10T21:29:02.406Z,98902.14
2018-11-10T21:31:31.157Z,98893.38
2018-11-10T21:33:59.846Z,98892.62
2018-11-10T21:36:28.486Z,98909.45
2018-11-10T21:38:56.959Z,98913.45
2018-11-10T21:41:30.886Z,98898.17
2018-11-10T21:43:59.471Z,98878.03
2018-11-10T21:46:27.970Z,98880.23
2018-11-10T21:48:56.677Z,98878.67
2018-11-10T21:51:25.599Z,98881.70
2018-11-10T21:53:54.037Z,98882.00
2018-11-10T21:56:22.582Z,98878.64
2018-11-10T21:58:51.221Z,98874.94
2018-11-10T22:01:19.821Z,98873.78
2018-11-10T22:03:48.462Z,98880.17
2018-11-10T22:06:17.133Z,98871.09
2018-11-10T22:08:46.339Z,98857.23
2018-11-10T22:11:14.908Z,98847.91
2018-11-10T22:13:47.075Z,98849.31
2018-11-10T22:16:16.090Z,98850.16
2018-11-10T22:18:44.885Z,98849.05
2018-11-10T22:21:13.618Z,98853.94
2018-11-10T22:23:42.200Z,98854.23
2018-11-10T22:26:10.816Z,98864.81
2018-11-10T22:28:39.317Z,98858.02
2018-11-10T22:31:07.816Z,98858.75
2018-11-10T22:33:36.246Z,98851.47
2018-11-10T22:36:04.677Z,98856.55
2018-11-10T22:38:33.068Z,98856.75
2018-11-10T22:41:01.504Z,98847.86
2018-11-10T22:43:30.114Z,98863.23
2018-11-10T22:45:58.802Z,98864.63
2018-11-10T22:48:27.394Z,98857.05
2018-11-10T22:50:56.019Z,98864.30
2018-11-10T22:53:24.493Z,98871.16
2018-11-10T23:02:51.737Z,98859.71
2018-11-10T23:05:21.375Z,98858.28
2018-11-10T23:07:49.833Z,98847.64
2018-11-10T23:10:18.603Z,98832.97
2018-11-10T23:12:47.902Z,98833.47
2018-11-10T23:15:16.321Z,98826.13
2018-11-10T23:17:45.210Z,98819.06
2018-11-10T23:20:15.273Z,98817.03
2018-11-10T23:22:43.889Z,98823.67
2018-11-10T23:25:13.653Z,98834.20
2018-11-10T23:27:42.070Z,98846.47
2018-11-10T23:30:13.041Z,98849.42
2018-11-10T23:32:41.805Z,98846.67
2018-11-10T23:35:11.022Z,98849.59
2018-11-10T23:37:39.833Z,98843.47
2018-11-10T23:40:10.023Z,98834.54
2018-11-10T23:42:38.527Z,98833.28
2018-11-10T23:45:07.731Z,98831.92
2018-11-10T23:47:36.496Z,98836.31
2018-11-10T23:50:05.144Z,98834.27
2018-11-10T23:52:33.569Z,98841.98
2018-11-10T23:55:01.951Z,98848.11
2018-11-10T23:57:30.365Z,98847.39
2018-11-10T23:59:58.722Z,98850.23
